.
WxDataArchive / Data Records for 2015-09-24
2015-09-23 September 2015 2015-09-25

Data Records for Thursday, 24 September 2015

Time	Temp	Chill	HIndex	Humid	Dewpt	 Wind 	HiWind	WindDir	Rain 	Barom
-----	----	-----	------	-----	-----	------	------	-------	-----	-----
00:00	58.9	58.9	58.9	73	50.3	0	0	---	0.00	30.216 
00:05	58.6	58.6	58.6	73	50.0	0	0	---	0.00	30.216 
00:10	58.4	58.4	58.4	74	50.1	0	0	---	0.00	30.216 
00:15	58.1	58.1	58.1	75	50.2	0	1	90	0.00	30.213 
00:20	58.0	58.0	58.0	76	50.5	0	0	---	0.00	30.213 
00:25	57.8	57.8	57.8	76	50.3	0	0	---	0.00	30.213 
00:30	57.8	57.8	57.8	76	50.3	0	0	---	0.00	30.214 
00:35	57.5	57.5	57.5	76	50.0	0	0	---	0.00	30.214 
00:40	57.3	57.3	57.3	77	50.1	0	0	---	0.00	30.214 
00:45	57.3	57.3	57.3	79	50.8	0	1	90	0.00	30.214 
00:50	57.3	57.3	57.3	79	50.8	0	0	---	0.00	30.214 
00:55	57.5	57.5	57.5	79	51.0	0	1	90	0.00	30.214 
01:00	57.6	57.6	57.6	79	51.1	0	1	90	0.00	30.213 
01:05	57.6	57.6	57.6	79	51.1	0	0	---	0.00	30.213 
01:10	57.6	57.6	57.6	80	51.5	0	0	---	0.00	30.213 
01:15	57.5	57.5	57.5	80	51.4	0	0	---	0.00	30.212 
01:20	57.5	57.5	57.5	81	51.7	0	0	---	0.00	30.212 
01:25	57.3	57.3	57.3	81	51.5	0	0	---	0.00	30.212 
01:30	57.2	57.2	57.2	82	51.8	0	0	---	0.00	30.213 
01:35	57.0	57.0	57.0	82	51.6	0	0	---	0.00	30.213 
01:40	56.9	56.9	56.9	83	51.8	0	0	---	0.00	30.213 
01:45	56.9	56.9	56.9	84	52.1	0	0	---	0.00	30.212 
01:50	56.7	56.7	56.7	84	51.9	0	0	---	0.00	30.212 
01:55	56.6	56.6	56.6	85	52.1	0	0	---	0.00	30.212 
02:00	56.5	56.5	56.5	85	52.0	0	0	---	0.00	30.212 
02:05	56.5	56.5	56.5	86	52.4	0	0	---	0.00	30.212 
02:10	56.3	56.3	56.3	86	52.2	0	0	---	0.00	30.212 
02:15	56.2	56.2	56.2	86	52.1	0	0	---	0.00	30.209 
02:20	56.0	56.0	56.0	86	51.9	0	0	---	0.00	30.209 
02:25	55.9	55.9	55.9	86	51.8	0	0	---	0.00	30.209 
02:30	55.7	55.7	55.7	87	51.9	0	0	---	0.00	30.214 
02:35	55.6	55.6	55.6	87	51.8	0	0	---	0.00	30.214 
02:40	55.4	55.4	55.4	87	51.6	0	0	---	0.00	30.214 
02:45	55.3	55.3	55.3	87	51.5	0	0	---	0.00	30.209 
02:50	55.1	55.1	55.1	87	51.3	0	0	---	0.00	30.209 
02:55	55.0	55.0	55.0	88	51.5	0	0	---	0.00	30.209 
03:00	54.8	54.8	54.8	88	51.3	0	0	---	0.00	30.206 
03:05	54.7	54.7	54.7	88	51.2	0	0	---	0.00	30.206 
03:10	54.5	54.5	54.5	88	51.0	0	0	---	0.00	30.206 
03:15	54.5	54.5	54.5	88	51.0	0	0	---	0.00	30.204 
03:20	54.5	54.5	54.5	89	51.3	0	0	---	0.00	30.204 
03:25	54.5	54.5	54.5	89	51.3	0	0	---	0.00	30.204 
03:30	54.8	54.8	54.8	91	52.2	0	0	---	0.00	30.202 
03:35	55.3	55.3	55.3	91	52.7	0	1	90	0.00	30.202 
03:40	55.6	55.6	55.6	91	53.0	0	0	---	0.00	30.202 
03:45	55.6	55.6	55.6	91	53.0	0	0	---	0.00	30.202 
03:50	55.6	55.6	55.6	91	53.0	0	0	---	0.00	30.202 
03:55	55.9	55.9	55.9	92	53.6	0	0	---	0.00	30.202 
04:00	56.0	56.0	56.0	92	53.7	0	0	---	0.00	30.204 
04:05	56.3	56.3	56.3	92	54.0	0	0	---	0.00	30.204 
04:10	56.5	56.5	56.5	92	54.2	0	0	---	0.00	30.204 
04:15	56.6	56.6	56.6	92	54.3	0	0	---	0.00	30.204 
04:20	56.6	56.6	56.6	93	54.6	0	0	---	0.00	30.204 
04:25	56.7	56.7	56.7	93	54.7	0	0	---	0.00	30.204 
04:30	56.7	56.7	56.7	93	54.7	0	1	90	0.00	30.202 
04:35	56.7	56.7	56.7	93	54.7	0	3	90	0.00	30.202 
04:40	56.9	56.9	56.9	93	54.9	0	1	90	0.00	30.202 
04:45	56.9	56.9	56.9	93	54.9	0	2	90	0.00	30.203 
04:50	56.9	56.9	56.9	93	54.9	0	1	90	0.00	30.203 
04:55	56.9	56.9	56.9	93	54.9	0	1	90	0.00	30.203 
05:00	56.9	56.9	56.9	93	54.9	0	2	90	0.00	30.207 
05:05	56.9	56.9	56.9	93	54.9	0	1	90	0.00	30.207 
05:10	57.0	57.0	57.0	94	55.3	0	1	90	0.00	30.207 
05:15	57.0	57.0	57.0	94	55.3	0	2	90	0.00	30.211 
05:20	57.2	57.2	57.2	94	55.5	0	2	90	0.00	30.211 
05:25	57.2	57.2	57.2	94	55.5	0	3	90	0.00	30.211 
05:30	57.0	57.0	57.0	94	55.3	0	1	90	0.00	30.213 
05:35	57.0	57.0	57.0	94	55.3	0	3	90	0.00	30.213 
05:40	56.9	56.9	56.9	94	55.2	0	1	90	0.00	30.213 
05:45	56.9	56.9	56.9	94	55.2	0	1	90	0.00	30.214 
05:50	56.7	56.7	56.7	94	55.0	0	1	90	0.00	30.214 
05:55	56.6	56.6	56.6	94	54.9	0	1	90	0.00	30.214 
06:00	56.6	56.6	56.6	94	54.9	0	1	90	0.00	30.217 
06:05	56.5	56.5	56.5	94	54.8	0	1	90	0.00	30.217 
06:10	56.5	56.5	56.5	94	54.8	0	2	90	0.00	30.217 
06:15	56.5	56.5	56.5	94	54.8	0	2	90	0.00	30.217 
06:20	56.5	56.5	56.5	94	54.8	0	1	90	0.00	30.217 
06:25	56.5	56.5	56.5	94	54.8	0	2	90	0.00	30.217 
06:30	56.3	56.3	56.3	94	54.6	0	1	90	0.00	30.221 
06:35	56.3	56.3	56.3	94	54.6	0	1	90	0.00	30.221 
06:40	56.3	56.3	56.3	94	54.6	0	1	90	0.00	30.221 
06:45	56.3	56.3	56.3	94	54.6	0	1	90	0.00	30.227 
06:50	56.3	56.3	56.3	94	54.6	0	1	90	0.00	30.227 
06:55	56.3	56.3	56.3	94	54.6	0	1	90	0.00	30.227 
07:00	56.3	56.3	56.3	94	54.6	0	1	90	0.00	30.229 
07:05	56.3	56.3	56.3	95	54.9	0	1	90	0.00	30.229 
07:10	56.3	56.3	56.3	95	54.9	0	1	90	0.00	30.229 
07:15	56.3	56.3	56.3	95	54.9	0	1	90	0.00	30.233 
07:20	56.3	56.3	56.3	95	54.9	0	3	90	0.00	30.233 
07:25	56.3	56.3	56.3	95	54.9	0	2	90	0.00	30.233 
07:30	56.3	56.3	56.3	95	54.9	0	2	90	0.00	30.235 
07:35	56.3	56.3	56.3	95	54.9	0	1	90	0.00	30.235 
07:40	56.3	56.3	56.3	95	54.9	0	1	90	0.00	30.235 
07:45	56.3	56.3	56.3	95	54.9	0	2	90	0.00	30.238 
07:50	56.3	56.3	56.3	95	54.9	0	2	90	0.00	30.238 
07:55	56.3	56.3	56.3	95	54.9	0	1	90	0.00	30.238 
08:00	56.5	56.5	56.5	95	55.1	0	1	90	0.00	30.243 
08:05	56.5	56.5	56.5	95	55.1	0	2	90	0.00	30.243 
08:10	56.6	56.6	56.6	95	55.2	0	1	90	0.00	30.243 
08:15	56.7	56.7	56.7	95	55.3	0	1	90	0.00	30.252 
08:20	56.9	56.9	56.9	95	55.5	0	2	90	0.00	30.252 
08:25	57.0	57.0	57.0	95	55.6	0	1	90	0.00	30.252 
08:30	57.3	57.3	57.3	95	55.9	0	1	90	0.00	30.253 
08:35	57.6	57.6	57.6	95	56.2	0	2	90	0.00	30.253 
08:40	57.8	57.8	57.8	94	56.1	0	2	90	0.00	30.253 
08:45	58.1	58.1	58.1	94	56.4	1	3	90	0.00	30.255 
08:50	58.4	58.4	58.4	94	56.7	0	2	90	0.00	30.255 
08:55	58.7	58.7	58.7	93	56.7	0	2	90	0.00	30.255 
09:00	59.0	59.0	59.0	93	57.0	0	2	90	0.00	30.258 
09:05	59.3	59.3	59.3	92	57.0	0	3	90	0.00	30.258 
09:10	59.8	59.8	59.8	91	57.2	0	3	90	0.00	30.258 
09:15	60.1	60.1	60.1	90	57.2	1	6	90	0.00	30.262 
09:20	60.5	60.5	60.5	89	57.2	1	5	112	0.00	30.262 
09:25	60.9	60.9	60.9	88	57.3	1	4	112	0.00	30.262 
09:30	61.2	61.2	61.2	86	57.0	2	4	90	0.00	30.266 
09:35	61.6	61.6	61.6	85	57.0	1	4	90	0.00	30.266 
09:40	62.0	62.0	62.0	84	57.1	1	4	90	0.00	30.266 
09:45	62.3	62.3	62.3	83	57.1	1	4	90	0.00	30.267 
09:50	62.6	62.6	62.6	82	57.0	1	4	90	0.00	30.267 
09:55	62.7	62.7	62.7	81	56.8	2	7	90	0.00	30.267 
10:00	63.1	63.1	63.1	80	56.8	1	6	90	0.00	30.266 
10:05	63.5	63.5	63.5	80	57.2	2	5	90	0.00	30.266 
10:10	64.0	64.0	64.0	79	57.4	1	4	90	0.00	30.266 
10:15	64.2	64.2	64.2	78	57.2	2	6	90	0.00	30.265 
10:20	64.5	64.5	64.5	78	57.5	0	2	90	0.00	30.265 
10:25	64.8	64.8	64.8	77	57.4	2	4	68	0.00	30.265 
10:30	65.3	65.3	65.3	76	57.5	2	5	90	0.00	30.266 
10:35	66.0	66.0	66.0	74	57.5	1	5	112	0.00	30.266 
10:40	66.4	66.4	66.4	73	57.5	2	6	90	0.00	30.266 
10:45	67.1	67.1	67.1	73	58.1	1	4	90	0.00	30.264 
10:50	67.8	67.8	67.8	71	58.0	1	5	90	0.00	30.264 
10:55	68.3	68.3	68.3	71	58.5	1	5	90	0.00	30.264 
11:00	68.8	68.8	68.8	71	59.0	1	4	90	0.00	30.260 
11:05	69.1	69.1	69.1	70	58.9	1	4	90	0.00	30.260 
11:10	69.4	69.4	69.4	69	58.8	1	4	90	0.00	30.260 
11:15	69.8	69.8	69.8	67	58.3	2	5	90	0.00	30.257 
11:20	70.3	70.3	70.3	68	59.2	1	3	90	0.00	30.257 
11:25	70.6	70.6	70.6	66	58.7	2	6	90	0.00	30.257 
11:30	71.1	71.1	71.1	66	59.2	1	4	90	0.00	30.255 
11:35	71.5	71.5	71.5	65	59.1	2	7	90	0.00	30.255 
11:40	71.8	71.8	71.8	65	59.4	1	4	68	0.00	30.255 
11:45	72.3	72.3	72.3	65	59.9	1	3	68	0.00	30.251 
11:50	72.5	72.5	72.5	63	59.2	2	5	68	0.00	30.251 
11:55	72.7	72.7	72.7	63	59.4	2	6	112	0.00	30.251 
12:00	72.8	72.8	72.8	63	59.5	2	6	112	0.00	30.246 
12:05	73.2	73.2	73.2	64	60.3	1	3	112	0.00	30.246 
12:10	73.5	73.5	73.5	63	60.1	1	5	112	0.00	30.246 
12:15	73.9	73.9	73.9	62	60.0	2	5	90	0.00	30.243 
12:20	74.0	74.0	74.0	60	59.2	2	5	90	0.00	30.243 
12:25	74.2	74.2	74.2	60	59.4	1	4	90	0.00	30.243 
12:30	74.4	74.4	74.4	59	59.1	2	4	90	0.00	30.237 
12:35	75.1	75.1	77.5	59	59.8	1	3	90	0.00	30.237 
12:40	75.4	75.4	77.7	56	58.6	1	4	90	0.00	30.237 
12:45	75.8	75.8	78.0	53	57.4	2	6	90	0.00	30.231 
12:50	76.1	76.1	78.1	56	59.2	1	5	112	0.00	30.231 
12:55	76.3	76.3	78.2	52	57.4	2	6	112	0.00	30.231 
13:00	76.7	76.7	78.5	54	58.8	1	4	90	0.00	30.230 
13:05	76.8	76.8	78.5	51	57.3	2	7	90	0.00	30.230 
13:10	76.8	76.8	78.5	49	56.2	3	7	90	0.00	30.230 
13:15	77.0	77.0	78.6	51	57.5	1	3	90	0.00	30.227 
13:20	77.4	77.4	78.8	50	57.3	1	4	90	0.00	30.227 
13:25	77.4	77.4	78.8	50	57.3	2	5	90	0.00	30.227 
13:30	77.4	77.4	78.8	49	56.7	2	6	90	0.00	30.227 
13:35	77.2	77.2	78.7	49	56.5	1	5	90	0.00	30.227 
13:40	77.0	77.0	78.6	50	56.9	3	5	68	0.00	30.227 
13:45	77.0	77.0	78.7	52	58.0	1	5	90	0.00	30.219 
13:50	77.4	77.4	78.7	47	55.6	1	5	90	0.00	30.219 
13:55	77.7	77.7	79.0	49	57.0	2	5	68	0.00	30.219 
14:00	77.9	77.9	79.1	49	57.2	1	5	90	0.00	30.212 
14:05	77.9	77.9	79.0	46	55.4	2	9	90	0.00	30.212 
14:10	77.9	77.9	79.1	49	57.2	1	6	112	0.00	30.212 
14:15	77.9	77.9	79.0	47	56.0	1	6	90	0.00	30.209 
14:20	78.1	78.1	79.2	47	56.2	2	5	90	0.00	30.209 
14:25	78.1	78.1	79.2	48	56.8	2	6	90	0.00	30.209 
14:30	78.1	78.1	79.1	46	55.6	2	5	90	0.00	30.208 
14:35	78.1	78.1	79.0	44	54.4	2	5	90	0.00	30.208 
14:40	78.3	78.3	79.1	43	53.9	2	5	68	0.00	30.208 
14:45	78.3	78.3	79.2	45	55.2	2	5	45	0.00	30.199 
14:50	78.5	78.5	79.2	44	54.7	2	5	90	0.00	30.199 
14:55	78.5	78.5	79.3	45	55.4	2	5	68	0.00	30.199 
15:00	78.5	78.5	79.2	44	54.7	2	5	68	0.00	30.195 
15:05	78.3	78.3	79.2	45	55.2	3	10	112	0.00	30.195 
15:10	78.1	78.1	79.1	46	55.6	1	5	112	0.00	30.195 
15:15	78.1	78.1	79.0	44	54.4	1	3	112	0.00	30.190 
15:20	78.3	78.3	79.1	43	53.9	1	3	112	0.00	30.190 
15:25	78.6	78.6	79.0	40	52.2	2	6	68	0.00	30.190 
15:30	78.6	78.6	79.0	40	52.2	2	7	90	0.00	30.190 
15:35	78.8	78.8	79.3	42	53.7	1	5	68	0.00	30.190 
15:40	79.0	79.0	79.3	40	52.6	2	5	68	0.00	30.190 
15:45	79.2	79.2	79.3	39	52.1	1	5	90	0.00	30.188 
15:50	79.0	79.0	79.3	40	52.6	1	4	68	0.00	30.188 
15:55	79.0	79.0	79.5	43	54.6	2	5	90	0.00	30.188 
16:00	78.8	78.8	79.3	42	53.7	2	6	112	0.00	30.183 
16:05	78.8	78.8	79.2	41	53.1	1	4	90	0.00	30.183 
16:10	79.0	79.0	79.4	42	53.9	2	7	90	0.00	30.183 
16:15	78.8	78.8	79.3	42	53.7	1	4	68	0.00	30.179 
16:20	78.8	78.8	79.3	42	53.7	2	5	90	0.00	30.179 
16:25	79.0	79.0	79.4	41	53.3	1	3	90	0.00	30.179 
16:30	78.8	78.8	79.2	41	53.1	1	6	90	0.00	30.179 
16:35	79.0	79.0	79.2	39	51.9	2	5	112	0.00	30.179 
16:40	79.0	79.0	79.2	39	51.9	1	4	90	0.00	30.179 
16:45	79.0	79.0	79.3	40	52.6	1	5	90	0.00	30.175 
16:50	78.8	78.8	79.1	39	51.7	2	5	90	0.00	30.175 
16:55	78.8	78.8	79.0	37	50.3	1	3	90	0.00	30.175 
17:00	79.0	79.0	79.2	39	51.9	1	4	90	0.00	30.176 
17:05	79.0	79.0	79.2	38	51.2	2	5	68	0.00	30.176 
17:10	79.0	79.0	79.1	37	50.5	1	4	68	0.00	30.176 
17:15	79.0	79.0	79.2	38	51.2	1	3	90	0.00	30.170 
17:20	78.8	78.8	79.0	38	51.0	1	3	90	0.00	30.170 
17:25	78.8	78.8	79.1	39	51.7	2	4	90	0.00	30.170 
17:30	78.8	78.8	79.2	40	52.4	1	4	68	0.00	30.167 
17:35	78.8	78.8	79.1	39	51.7	1	9	68	0.00	30.167 
17:40	78.8	78.8	79.1	39	51.7	1	4	68	0.00	30.167 
17:45	78.8	78.8	79.1	39	51.7	1	5	112	0.00	30.166 
17:50	78.6	78.6	78.9	37	50.1	2	5	68	0.00	30.166 
17:55	78.6	78.6	78.9	38	50.8	2	5	112	0.00	30.166 
18:00	78.5	78.5	78.8	37	50.0	1	4	68	0.00	30.164 
18:05	78.5	78.5	78.9	38	50.8	2	4	68	0.00	30.164 
18:10	78.3	78.3	78.8	39	51.3	2	7	112	0.00	30.164 
18:15	78.3	78.3	78.8	39	51.3	1	4	112	0.00	30.165 
18:20	77.9	77.9	78.6	39	50.9	1	7	112	0.00	30.165 
18:25	77.7	77.7	78.6	41	52.1	0	2	112	0.00	30.165 
18:30	77.7	77.7	78.6	41	52.1	1	5	68	0.00	30.164 
18:35	77.4	77.4	78.5	41	51.8	1	3	68	0.00	30.164 
18:40	77.2	77.2	78.4	42	52.3	0	2	68	0.00	30.164 
18:45	77.0	77.0	78.4	43	52.8	0	1	68	0.00	30.166 
18:50	76.8	76.8	78.3	43	52.6	1	4	90	0.00	30.166 
18:55	76.7	76.7	78.2	43	52.5	0	3	90	0.00	30.166 
19:00	76.3	76.3	78.1	44	52.8	0	1	90	0.00	30.166 
19:05	76.0	76.0	78.0	45	53.1	0	1	90	0.00	30.166 
19:10	75.6	75.6	77.8	46	53.3	0	1	90	0.00	30.166 
19:15	75.3	75.3	77.7	47	53.7	0	1	90	0.00	30.166 
19:20	74.7	74.7	74.7	47	53.1	0	1	90	0.00	30.166 
19:25	74.4	74.4	74.4	48	53.4	0	1	90	0.00	30.166 
19:30	74.0	74.0	74.0	49	53.6	0	1	90	0.00	30.168 
19:35	73.7	73.7	73.7	50	53.9	0	1	90	0.00	30.168 
19:40	73.3	73.3	73.3	51	54.1	0	1	90	0.00	30.168 
19:45	73.0	73.0	73.0	53	54.8	0	1	90	0.00	30.170 
19:50	72.7	72.7	72.7	54	55.1	0	1	90	0.00	30.170 
19:55	72.3	72.3	72.3	55	55.2	0	0	---	0.00	30.170 
20:00	72.0	72.0	72.0	56	55.4	0	0	---	0.00	30.172 
20:05	71.5	71.5	71.5	57	55.5	0	1	90	0.00	30.172 
20:10	71.1	71.1	71.1	58	55.6	0	1	90	0.00	30.172 
20:15	70.9	70.9	70.9	59	55.8	0	2	90	0.00	30.171 
20:20	70.8	70.8	70.8	59	55.7	0	3	90	0.00	30.171 
20:25	70.6	70.6	70.6	59	55.6	1	3	90	0.00	30.171 
20:30	70.4	70.4	70.4	58	54.9	1	4	90	0.00	30.180 
20:35	70.4	70.4	70.4	58	54.9	1	4	90	0.00	30.180 
20:40	70.3	70.3	70.3	58	54.8	0	3	90	0.00	30.180 
20:45	69.9	69.9	69.9	58	54.4	0	3	90	0.00	30.187 
20:50	69.8	69.8	69.8	58	54.3	0	2	90	0.00	30.187 
20:55	69.4	69.4	69.4	58	54.0	0	2	90	0.00	30.187 
21:00	69.1	69.1	69.1	59	54.2	0	4	90	0.00	30.193 
21:05	68.8	68.8	68.8	58	53.4	2	5	90	0.00	30.193 
21:10	68.6	68.6	68.6	58	53.2	1	3	112	0.00	30.193 
21:15	68.3	68.3	68.3	59	53.4	0	1	112	0.00	30.196 
21:20	67.9	67.9	67.9	59	53.0	0	1	112	0.00	30.196 
21:25	67.8	67.8	67.8	59	52.9	0	3	112	0.00	30.196 
21:30	67.6	67.6	67.6	59	52.8	1	5	112	0.00	30.199 
21:35	67.4	67.4	67.4	60	53.0	1	4	112	0.00	30.199 
21:40	67.4	67.4	67.4	60	53.0	1	3	112	0.00	30.199 
21:45	67.3	67.3	67.3	61	53.4	0	2	112	0.00	30.201 
21:50	66.9	66.9	66.9	61	53.0	0	3	112	0.00	30.201 
21:55	66.8	66.8	66.8	62	53.4	0	2	112	0.00	30.201 
22:00	66.6	66.6	66.6	63	53.6	0	2	112	0.00	30.203 
22:05	66.3	66.3	66.3	63	53.3	0	1	112	0.00	30.203 
22:10	66.1	66.1	66.1	64	53.6	0	1	112	0.00	30.203 
22:15	66.0	66.0	66.0	64	53.5	0	3	112	0.00	30.203 
22:20	65.6	65.6	65.6	65	53.5	0	1	112	0.00	30.203 
22:25	65.5	65.5	65.5	65	53.4	0	1	112	0.00	30.203 
22:30	65.2	65.2	65.2	66	53.5	0	2	112	0.00	30.204 
22:35	64.8	64.8	64.8	67	53.6	0	0	---	0.00	30.204 
22:40	64.7	64.7	64.7	67	53.5	0	1	112	0.00	30.204 
22:45	64.3	64.3	64.3	68	53.5	0	1	112	0.00	30.204 
22:50	64.2	64.2	64.2	69	53.8	0	1	112	0.00	30.204 
22:55	64.0	64.0	64.0	69	53.6	0	1	112	0.00	30.204 
23:00	63.9	63.9	63.9	70	53.9	0	1	112	0.00	30.205 
23:05	63.7	63.7	63.7	71	54.1	0	0	---	0.00	30.205 
23:10	63.5	63.5	63.5	71	53.9	0	1	112	0.00	30.205 
23:15	63.4	63.4	63.4	72	54.2	0	1	112	0.00	30.199 
23:20	63.2	63.2	63.2	73	54.4	0	1	112	0.00	30.199 
23:25	63.2	63.2	63.2	73	54.4	0	1	112	0.00	30.199 
23:30	63.1	63.1	63.1	73	54.3	0	1	112	0.00	30.199 
23:35	63.1	63.1	63.1	74	54.7	0	1	112	0.00	30.199 
23:40	62.9	62.9	62.9	74	54.5	0	2	112	0.00	30.199 
23:45	62.7	62.7	62.7	75	54.7	0	0	---	0.00	30.198 
23:50	62.6	62.6	62.6	75	54.6	0	1	112	0.00	30.198 
23:55	62.4	62.4	62.4	76	54.7	0	1	112	0.00	30.198 

CoCoRaHS
IN-AL-39
A2 Web Hosting
Creative Commons License
GoDaddy
search engine by freefind advanced

loaded 2018-11-15 13:38:44 • last modified 2010-11-18 10:43:29
Privacy PolicyDisclaimer
• wx.awcolley.com is powered by PmWiki v.2002016 •
• all content (unless otherwise noted) © 2018 A W Colley